Flight Track Log - Related Links

Times and Time Zones

All times are in EDT time to prevent confusion due to time zone crossing. See the JBU226 flight status page for this flight to view local times or setup timezone preferences in your user account.

Time Position Orientation Groundspeed Altitude Reporting Facility
EDT Latitude Longitude Course Direction KTS MPH feet Rate Location/Type
Sun 06:01:52 AM 27.9833 -82.5333 320° Northwest 150 173 700  Level Tampa TRACON
Sun 06:01:58 AM 28.0000 -82.5333 360° North 146 168 1,200 1,909 Climbing Tampa TRACON
Sun 06:03:42 AM 28.0828 -82.5328 360° North 186 214 4,200 2,341 Climbing Jacksonville Center
Sun 06:04:00 AM 28.3013 -82.3419 North  Level Estimated
Sun 06:04:42 AM 28.1578 -82.5347 359° North 225 259 7,600  Level Jacksonville Center
Sun 06:05:00 AM 28.4098 -82.2778 354° North  Level Estimated
Sun 06:05:42 AM 28.2350 -82.5414 356° North 259 298 10,500  Level Jacksonville Center
Sun 06:06:00 AM 28.5184 -82.2136 354° North  Level Estimated
Sun 06:06:42 AM 28.3311 -82.5531 354° North 301 346 12,200  Level Jacksonville Center
Sun 06:07:00 AM 28.6116 -82.3038 320° Northwest  Level FlightAware Approximate
Sun 06:07:42 AM 28.4311 -82.5644 354° North 341 392 14,700  Level Jacksonville Center
Sun 06:08:42 AM 28.5378 -82.5736 356° North 367 422 17,200 2,400 Climbing Jacksonville Center
Sun 06:09:42 AM 28.6483 -82.5875 354° North 388 447 19,500 2,300 Climbing Jacksonville Center
Sun 06:10:42 AM 28.7736 -82.6014 354° North 403 464 21,800 2,050 Climbing Jacksonville Center
Sun 06:11:42 AM 28.8842 -82.6200 352° North 409 471 23,600 1,900 Climbing Jacksonville Center
Sun 06:12:42 AM 29.0033 -82.6339 354° North 409 471 25,600 1,700 Climbing Jacksonville Center
Sun 06:13:42 AM 29.1203 -82.6500 353° North 415 478 27,000 1,400 Climbing Jacksonville Center
Sun 06:14:42 AM 29.2392 -82.6664 353° North 420 483 28,400 1,300 Climbing Jacksonville Center
Sun 06:15:42 AM 29.3644 -82.6853 353° North 432 497 29,600 1,450 Climbing Jacksonville Center
Sun 06:16:42 AM 29.4897 -82.6922 357° North 442 509 31,300 1,350 Climbing Jacksonville Center
Sun 06:17:42 AM 29.6192 -82.6942 359° North 455 524 32,300 1,200 Climbing Jacksonville Center
Sun 06:18:42 AM 29.7486 -82.6942 360° North 460 529 33,700 1,400 Climbing Jacksonville Center
Sun 06:19:42 AM 29.8739 -82.6914 North 460 529 35,100 1,150 Climbing Jacksonville Center
Sun 06:20:42 AM 30.0011 -82.6936 359° North 460 529 36,000 950 Climbing Jacksonville Center
Sun 06:21:42 AM 30.1264 -82.6861 North 460 529 37,000 500 Climbing Jacksonville Center
Sun 06:22:42 AM 30.2517 -82.6858 360° North 455 524 37,000  Level Jacksonville Center
Sun 06:23:42 AM 30.3769 -82.6856 360° North 450 518 37,000  Level Jacksonville Center
Sun 06:24:42 AM 30.5003 -82.6731 North 450 518 37,000 -50 Level Jacksonville Center
Sun 06:25:42 AM 30.6275 -82.6294 16° North 455 524 36,900 -50 Descending Jacksonville Center
Sun 06:26:42 AM 30.7506 -82.5686 23° Northeast 462 532 36,900 50 Level Jacksonville Center
Sun 06:27:42 AM 30.8736 -82.5078 23° Northeast 467 537 37,000 50 Climbing Jacksonville Center
Sun 06:28:42 AM 30.9714 -82.4419 30° Northeast 489 563 37,000  Level Jacksonville Center
Sun 06:29:42 AM 31.0836 -82.3225 42° Northeast 489 563 37,000  Level Jacksonville Center
Sun 06:30:42 AM 31.1875 -82.2078 43° Northeast 501 577 37,000 -50 Level Jacksonville Center
Sun 06:31:42 AM 31.2914 -82.0975 42° Northeast 501 577 36,900  Descending Jacksonville Center
Sun 06:32:42 AM 31.3928 -81.9847 44° Northeast 501 577 37,000 50 Climbing Jacksonville Center
Sun 06:33:42 AM 31.5047 -81.8594 44° Northeast 501 577 37,000  Level Jacksonville Center
Sun 06:34:42 AM 31.5978 -81.7558 43° Northeast 501 577 37,000  Level Jacksonville Center
Sun 06:35:42 AM 31.7114 -81.6325 43° Northeast 504 580 37,000  Level Jacksonville Center
Sun 06:36:42 AM 31.8147 -81.5211 42° Northeast 503 579 37,000  Level Jacksonville Center
Sun 06:37:42 AM 31.9094 -81.4144 44° Northeast 508 585 37,000  Level Jacksonville Center
Sun 06:38:42 AM 32.0144 -81.2975 43° Northeast 513 590 37,000  Level Jacksonville Center
Sun 06:39:42 AM 32.1194 -81.1803 43° Northeast 513 590 37,000 50 Level Jacksonville Center
Sun 06:40:42 AM 32.2367 -81.0553 42° Northeast 520 598 37,100  Climbing Jacksonville Center
Sun 06:41:42 AM 32.3414 -80.9378 43° Northeast 511 588 37,000 -50 Descending Jacksonville Center
Sun 06:42:42 AM 32.4317 -80.8300 45° Northeast 511 588 37,000  Level Jacksonville Center
Sun 06:43:42 AM 32.5342 -80.7167 43° Northeast 511 588 37,000  Level Jacksonville Center
Sun 06:44:42 AM 32.6342 -80.6008 44° Northeast 506 582 37,000 50 Level Jacksonville Center
Sun 06:45:42 AM 32.7344 -80.4872 44° Northeast 501 577 37,100 800 Climbing Jacksonville Center
Sun 06:46:42 AM 32.8344 -80.3733 44° Northeast 501 577 38,600 950 Climbing Jacksonville Center
Sun 06:47:42 AM 32.9447 -80.2489 43° Northeast 496 571 39,000 200 Climbing Jacksonville Center
Sun 06:48:42 AM 33.0364 -80.1422 44° Northeast 485 558 39,000  Level Jacksonville Center
Sun 06:49:42 AM 33.1381 -80.0250 44° Northeast 492 566 39,000  Level Jacksonville Center
Sun 06:50:42 AM 33.2378 -79.9100 44° Northeast 497 572 39,000  Level Jacksonville Center
Sun 06:51:42 AM 33.3353 -79.7972 44° Northeast 491 565 39,000  Level Jacksonville Center
Sun 06:52:42 AM 33.4344 -79.6819 44° Northeast 491 565 39,000  Level Jacksonville Center
Sun 06:53:42 AM 33.5339 -79.5661 44° Northeast 491 565 39,000  Level Jacksonville Center
Sun 06:54:42 AM 33.6328 -79.4478 45° Northeast 491 565 39,000  Level Jacksonville Center
Sun 06:55:42 AM 33.7278 -79.3367 44° Northeast 491 565 39,000  Level Jacksonville Center
Sun 06:57:16 AM 33.8658 -79.1731 45° Northeast 481 554 39,000  Level Washington Center
Sun 06:58:14 AM 33.9631 -79.0569 45° Northeast 486 559 39,000 -51 Level Washington Center
Sun 06:59:13 AM 34.0625 -78.9408 44° Northeast 486 559 38,900  Descending Washington Center
Sun 07:00:14 AM 34.1594 -78.8269 44° Northeast 481 554 39,000 50 Climbing Washington Center
Sun 07:01:14 AM 34.2542 -78.7125 45° Northeast 476 548 39,000  Level Washington Center
Sun 07:02:16 AM 34.3553 -78.5981 43° Northeast 476 548 39,000  Level Washington Center
Sun 07:03:13 AM 34.4600 -78.4961 39° Northeast 482 555 39,000  Level Washington Center
Sun 07:04:14 AM 34.5647 -78.3914 39° Northeast 482 555 39,000  Level Washington Center
Sun 07:05:15 AM 34.6694 -78.2864 39° Northeast 482 555 39,000  Level Washington Center
Sun 07:06:16 AM 34.7717 -78.1836 40° Northeast 487 560 39,000  Level Washington Center
Sun 07:07:16 AM 34.8828 -78.0631 42° Northeast 481 554 39,000  Level Washington Center
Sun 07:08:14 AM 34.9850 -77.9572 40° Northeast 481 554 39,000  Level Washington Center
Sun 07:09:14 AM 35.0872 -77.8536 40° Northeast 481 554 39,000  Level Washington Center
Sun 07:10:16 AM 35.1894 -77.7472 40° Northeast 481 554 39,000  Level Washington Center
Sun 07:11:28 AM 35.2936 -77.6406 40° Northeast 481 554 39,000  Level Washington Center
Sun 07:12:26 AM 35.4186 -77.5139 40° Northeast 486 559 39,000  Level Washington Center
Sun 07:13:27 AM 35.5267 -77.4194 35° Northeast 486 559 39,000  Level Washington Center
Sun 07:14:28 AM 35.6364 -77.3247 35° Northeast 481 554 39,000  Level Washington Center
Sun 07:15:25 AM 35.7483 -77.2275 35° Northeast 486 559 39,000  Level Washington Center
Sun 07:16:28 AM 35.8603 -77.1322 35° Northeast 486 559 39,000  Level Washington Center
Sun 07:17:26 AM 35.9658 -77.0369 36° Northeast 480 552 39,000  Level Washington Center
Sun 07:18:26 AM 36.0836 -76.9594 28° Northeast 480 552 39,000  Level Washington Center
Sun 07:19:27 AM 36.1992 -76.8764 30° Northeast 475 547 39,000  Level Washington Center
Sun 07:20:28 AM 36.3169 -76.7983 28° Northeast 475 547 39,000 -50 Level Washington Center
Sun 07:21:26 AM 36.4344 -76.7175 29° Northeast 475 547 38,900  Descending Washington Center
Sun 07:22:28 AM 36.5478 -76.6417 28° Northeast 470 541 39,000 50 Climbing Washington Center
Sun 07:23:26 AM 36.6633 -76.5603 29° Northeast 470 541 39,000  Level Washington Center
Sun 07:24:27 AM 36.7786 -76.4761 30° Northeast 470 541 39,000  Level Washington Center
Sun 07:25:27 AM 36.8939 -76.3944 30° Northeast 470 541 39,000  Level Washington Center
Sun 07:26:28 AM 37.0114 -76.3125 29° Northeast 470 541 39,000  Level Washington Center
Sun 07:27:26 AM 37.1286 -76.2300 29° Northeast 470 541 39,000  Level Washington Center
Sun 07:28:26 AM 37.2458 -76.1528 28° Northeast 470 541 39,000  Level Washington Center
Sun 07:29:28 AM 37.3631 -76.0700 29° Northeast 470 541 39,000  Level Washington Center
Sun 07:30:26 AM 37.4781 -75.9897 29° Northeast 475 547 39,000  Level Washington Center
Sun 07:31:26 AM 37.5972 -75.9064 29° Northeast 475 547 39,000  Level Washington Center
Sun 07:32:26 AM 37.7142 -75.8228 29° Northeast 480 552 39,000 -50 Level Washington Center
Sun 07:33:26 AM 37.8311 -75.7364 30° Northeast 480 552 38,900 -50 Descending Washington Center
Sun 07:34:27 AM 37.9478 -75.6497 30° Northeast 480 552 38,900 50 Level Washington Center
Sun 07:35:25 AM 38.0500 -75.5706 31° Northeast 480 552 39,000 50 Climbing Washington Center
Sun 07:36:27 AM 38.1836 -75.4833 27° Northeast 480 552 39,000  Level Washington Center
Sun 07:37:25 AM 38.2961 -75.3958 31° Northeast 480 552 39,000 -555 Level Washington Center
Sun 07:38:26 AM 38.3981 -75.3214 30° Northeast 473 544 37,900 -984 Descending Washington Center
Sun 07:39:27 AM 38.5083 -75.2361 31° Northeast 463 533 37,000 -443 Descending Washington Center
Sun 07:40:28 AM 38.6206 -75.1481 32° Northeast 463 533 37,000  Level Washington Center
Sun 07:41:25 AM 38.7264 -75.0489 36° Northeast 468 539 37,000 -559 Level Washington Center
Sun 07:42:26 AM 38.8322 -74.9547 35° Northeast 468 539 35,900 -1,835 Descending Washington Center
Sun 07:43:26 AM 38.9442 -74.8550 35° Northeast 468 539 33,300 -2,600 Descending Washington Center
Sun 07:44:26 AM 39.0500 -74.7603 35° Northeast 473 544 30,700 -2,430 Descending Washington Center
Sun 07:45:27 AM 39.1536 -74.6628 36° Northeast 473 544 28,400 -2,231 Descending Washington Center
Sun 07:46:27 AM 39.2528 -74.5731 35° Northeast 454 522 26,200 -2,182 Descending Washington Center
Sun 07:47:28 AM 39.3478 -74.4858 35° Northeast 435 501 24,000 -2,529 Descending Washington Center
Sun 07:48:28 AM 39.4553 -74.3900 35° Northeast 430 495 21,100 -2,524 Descending Washington Center
Sun 07:49:34 AM 39.5544 -74.2981 36° Northeast 412 474 18,700 -2,000 Descending New York Center
Sun 07:50:34 AM 39.6492 -74.1978 39° Northeast 406 467 16,900 -1,650 Descending New York Center
Sun 07:51:34 AM 39.7308 -74.1097 40° Northeast 395 455 15,400 -1,400 Descending New York Center
Sun 07:52:34 AM 39.8125 -74.0219 40° Northeast 383 441 14,100 -1,250 Descending New York Center
Sun 07:53:34 AM 39.8872 -73.9578 33° Northeast 363 418 12,900 -1,250 Descending New York Center
Sun 07:54:34 AM 39.9744 -73.8939 29° Northeast 355 409 11,600 -1,067 Descending New York Center
Sun 07:56:34 AM 40.1153 -73.7672 35° Northeast 304 350 9,700 -1,133 Descending New York Center
Sun 07:57:34 AM 40.1919 -73.7028 33° Northeast 293 337 8,200 -1,450 Descending New York Center
Sun 07:58:34 AM 40.2536 -73.6539 31° Northeast 293 337 6,800 -1,200 Descending New York Center
Sun 07:59:34 AM 40.3239 -73.5942 33° Northeast 274 315 5,800 -950 Descending New York Center
Sun 08:00:34 AM 40.3811 -73.5475 32° Northeast 274 315 4,900 -900 Descending New York Center
Sun 08:01:34 AM 40.4511 -73.4903 32° Northeast 268 308 4,000 -450 Descending New York Center
Sun 08:02:34 AM 40.5119 -73.4764 10° North 244 281 4,000  Level New York Center
Sun 08:03:34 AM 40.5783 -73.4897 351° North 236 272 4,000  Level New York Center
Sun 08:04:34 AM 40.6447 -73.5033 351° North 228 262 4,000 -100 Level New York Center
Sun 08:05:34 AM 40.6981 -73.5331 337° Northwest 214 246 3,800 -1,000 Descending New York Center
Sun 08:06:34 AM 40.7361 -73.6056 305° West 214 246 2,000 -900 Descending New York Center
Sun 08:07:34 AM 40.7167 -73.6667 247° West 184 212 2,000 -300 Level New York TRACON
Sun 08:08:34 AM 40.6833 -73.7167 229° Southwest 141 162 1,400 -750 Descending New York TRACON
Sun 08:09:34 AM 40.6667 -73.7333 217° Southwest 124 143 500 -900 Descending New York TRACON
Sun 08:11:00 AM 40.6398 -73.7789 232° Southwest  Level Estimated
Sun 08:18:00 AM 40.6398 -73.7789 72° East  Level Estimated
Sun 08:19:00 AM 40.6398 -73.7789 72° East  Level Estimated

Login

Don't have an account? Register now (free) for customized features, flight alerts, and more!